This is the latest recevied weather packets stored in our database for station/object KE5KUL-13. If no packets are shown the sender has not sent any weather packets the latest 10 day(s).
| Time | Temp. | Humidity | Pressure | Rain* | Wind** | Luminosity | Snow |
|---|---|---|---|---|---|---|---|
| 1777967417 | 20° C | 28% | 1007 hPa | 0 mm | - | - | - |
| 1777966819 | 20° C | 27% | 1007 hPa | 0 mm | - | - | - |
| 1777966217 | 20.56° C | 27% | 1007.3 hPa | 0 mm | - | - | - |
| 1777965617 | 20.56° C | 26% | 1007.2 hPa | 0 mm | - | - | - |
| 1777965017 | 21.11° C | 26% | 1007.5 hPa | 0 mm | - | - | - |
| 1777964419 | 21.11° C | 26% | 1007.5 hPa | 0 mm | - | - | - |
| 1777963819 | 21.11° C | 26% | 1007.4 hPa | 0 mm | - | - | - |
| 1777963217 | 21.11° C | 26% | 1007.4 hPa | 0 mm | - | - | - |
| 1777962617 | 21.11° C | 26% | 1007.6 hPa | 0 mm | - | - | - |
| 1777962019 | 21.11° C | 25% | 1007.7 hPa | 0 mm | - | - | - |
| 1777961419 | 21.67° C | 25% | 1007.7 hPa | 0 mm | - | - | - |
| 1777960817 | 21.67° C | 25% | 1007.6 hPa | 0 mm | - | - | - |
| 1777960217 | 21.67° C | 25% | 1007.7 hPa | 0 mm | - | - | - |
| 1777959619 | 21.67° C | 25% | 1007.7 hPa | 0 mm | - | - | - |
| 1777959019 | 21.67° C | 25% | 1007.8 hPa | 0 mm | - | - | - |
| 1777958419 | 21.67° C | 25% | 1007.8 hPa | 0 mm | - | - | - |
| 1777957817 | 21.67° C | 25% | 1007.8 hPa | 0 mm | - | - | - |
| 1777956617 | 22.22° C | 25% | 1007.8 hPa | 0 mm | - | - | - |
| 1777956018 | 22.22° C | 25% | 1007.9 hPa | 0 mm | - | - | - |
| 1777955418 | 22.22° C | 25% | 1008 hPa | 0 mm | - | - | - |
| 1777954818 | 22.78° C | 24% | 1007.9 hPa | 0 mm | - | - | - |
| 1777954217 | 22.78° C | 24% | 1008 hPa | 0 mm | - | - | - |
| 1777953618 | 22.78° C | 24% | 1008 hPa | 0 mm | - | - | - |
| 1777943417 | 27.22° C | 14% | 1004.8 hPa | 0 mm | - | - | - |
| 1777940417 | 28.33° C | 13% | 1005.3 hPa | 0 mm | - | - | - |
* Rain latest hour (hover to see other rain measurements)
** Current wind speed in m/s (hover to see current wind gust speed)